createdAt,value
2019-05-26T00:02:20.872Z,3.90
2019-05-26T00:04:49.424Z,3.67
2019-05-26T00:07:30.117Z,3.90
2019-05-26T00:09:48.257Z,4.20
2019-05-26T00:12:17.046Z,3.90
2019-05-26T00:14:45.637Z,3.93
2019-05-26T00:17:14.195Z,4.00
2019-05-26T00:19:42.743Z,4.40
2019-05-26T00:22:11.420Z,4.30
2019-05-26T00:24:39.989Z,4.27
2019-05-26T00:27:08.547Z,4.20
2019-05-26T00:29:37.190Z,4.20
2019-05-26T00:32:05.901Z,4.13
2019-05-26T00:34:34.503Z,4.33
2019-05-26T00:37:03.133Z,4.10
2019-05-26T00:39:31.701Z,4.20
2019-05-26T00:42:00.285Z,4.40
2019-05-26T00:44:28.864Z,4.27
2019-05-26T00:46:57.491Z,4.23
2019-05-26T00:49:26.162Z,4.17
2019-05-26T00:51:54.779Z,4.53
2019-05-26T00:54:23.409Z,4.60
2019-05-26T00:56:52.156Z,4.23
2019-05-26T00:59:21.489Z,3.87
2019-05-26T01:01:50.068Z,4.30
2019-05-26T01:04:18.680Z,4.20
2019-05-26T01:06:47.223Z,4.60
2019-05-26T01:09:15.877Z,4.73
2019-05-26T01:11:44.533Z,4.50
2019-05-26T01:14:13.211Z,4.43
2019-05-26T01:16:41.843Z,4.70
2019-05-26T01:19:10.411Z,5.30
2019-05-26T01:21:39.033Z,5.17
2019-05-26T01:24:07.632Z,5.10
2019-05-26T01:26:45.261Z,6.70
2019-05-26T01:29:13.894Z,6.10
2019-05-26T01:31:42.569Z,6.40
2019-05-26T01:34:11.259Z,5.80
2019-05-26T01:36:39.945Z,5.40
2019-05-26T01:39:09.314Z,5.50
2019-05-26T01:41:37.876Z,5.17
2019-05-26T01:44:06.502Z,4.93
2019-05-26T01:46:35.082Z,5.33
2019-05-26T01:49:03.711Z,5.30
2019-05-26T01:51:32.306Z,5.60
2019-05-26T01:54:00.862Z,5.37
2019-05-26T01:56:29.435Z,5.50
2019-05-26T01:58:58.028Z,5.53
2019-05-26T02:01:26.588Z,5.90
2019-05-26T02:03:55.205Z,5.37
2019-05-26T02:06:24.306Z,5.80
2019-05-26T02:08:53.094Z,5.80
2019-05-26T02:11:21.710Z,5.27
2019-05-26T02:13:50.272Z,5.20
2019-05-26T02:16:18.969Z,4.83
2019-05-26T02:18:47.567Z,4.93
2019-05-26T02:21:16.435Z,5.33
2019-05-26T02:23:45.047Z,4.90
2019-05-26T02:26:13.656Z,4.80
2019-05-26T02:28:42.220Z,5.37
2019-05-26T02:31:10.785Z,4.60
2019-05-26T02:33:39.438Z,5.07
2019-05-26T02:36:08.010Z,4.77
2019-05-26T02:38:36.579Z,4.87
2019-05-26T02:41:05.297Z,5.03
2019-05-26T02:43:33.918Z,4.70
2019-05-26T02:46:02.488Z,5.50
2019-05-26T02:48:31.513Z,4.80
2019-05-26T02:51:00.061Z,5.17
2019-05-26T02:53:28.650Z,5.33
2019-05-26T02:55:57.261Z,5.13
2019-05-26T02:58:25.968Z,5.23
2019-05-26T03:00:54.592Z,5.27
2019-05-26T03:03:23.229Z,6.00
2019-05-26T03:05:52.246Z,5.10
2019-05-26T03:08:21.679Z,5.77
2019-05-26T03:10:52.264Z,7.67
2019-05-26T03:13:20.854Z,7.23
2019-05-26T03:15:49.508Z,6.00
2019-05-26T03:18:18.251Z,6.23
2019-05-26T03:20:46.884Z,6.17
2019-05-26T03:23:16.316Z,5.20
2019-05-26T03:25:45.640Z,5.70
2019-05-26T03:28:14.295Z,5.90
2019-05-26T03:30:42.863Z,5.90
2019-05-26T03:33:11.497Z,5.57
2019-05-26T03:35:40.074Z,5.63
2019-05-26T03:38:08.714Z,5.63
2019-05-26T03:40:37.352Z,5.40
2019-05-26T03:43:05.900Z,5.70
2019-05-26T03:45:43.560Z,5.50
2019-05-26T03:48:12.245Z,5.40
2019-05-26T03:50:40.813Z,5.40
2019-05-26T03:53:09.429Z,5.10
2019-05-26T03:55:37.970Z,5.90
2019-05-26T03:58:06.528Z,5.67
2019-05-26T04:00:35.270Z,5.60
2019-05-26T04:03:03.888Z,5.60
2019-05-26T04:05:32.562Z,5.60
2019-05-26T04:08:05.093Z,5.47
2019-05-26T04:10:31.801Z,5.77
2019-05-26T04:13:00.358Z,5.60
2019-05-26T04:15:29.021Z,6.77
2019-05-26T04:17:57.654Z,6.00
2019-05-26T04:20:26.286Z,5.90
2019-05-26T04:23:01.138Z,5.67
2019-05-26T04:25:29.700Z,6.27
2019-05-26T04:28:07.624Z,5.93
2019-05-26T04:30:36.179Z,6.23
2019-05-26T04:33:04.810Z,6.13
2019-05-26T04:35:33.417Z,6.33
2019-05-26T04:38:01.971Z,6.47
2019-05-26T04:40:30.521Z,6.17
2019-05-26T04:42:59.117Z,6.33
2019-05-26T04:45:27.683Z,6.27
2019-05-26T04:47:56.245Z,5.80
2019-05-26T04:50:24.815Z,6.87
2019-05-26T04:53:05.638Z,6.23
2019-05-26T04:55:23.732Z,7.57
2019-05-26T04:57:52.364Z,7.00
2019-05-26T05:00:21.086Z,7.23
2019-05-26T05:02:49.673Z,6.70
2019-05-26T05:05:18.455Z,7.07
2019-05-26T05:07:47.124Z,6.73
2019-05-26T05:10:15.723Z,7.27
2019-05-26T05:12:44.280Z,6.93
2019-05-26T05:15:13.067Z,7.00
2019-05-26T05:17:41.653Z,7.07
2019-05-26T05:20:10.449Z,7.03
2019-05-26T05:22:38.993Z,7.13
2019-05-26T05:25:14.163Z,7.60
2019-05-26T05:27:38.919Z,7.30
2019-05-26T05:30:08.514Z,7.40
2019-05-26T05:32:37.108Z,6.90
2019-05-26T05:35:08.113Z,6.77
2019-05-26T05:37:36.742Z,6.73
2019-05-26T05:40:09.060Z,6.37
2019-05-26T05:42:37.631Z,6.57
2019-05-26T05:45:08.004Z,6.53
2019-05-26T05:47:36.658Z,6.23
2019-05-26T05:50:07.540Z,6.87
2019-05-26T05:52:36.127Z,6.67
2019-05-26T05:55:05.550Z,6.40
2019-05-26T05:57:34.496Z,5.87
2019-05-26T06:00:04.772Z,6.00
2019-05-26T06:02:33.447Z,6.60
2019-05-26T06:05:02.144Z,6.80
2019-05-26T06:07:30.896Z,8.13
2019-05-26T06:09:59.553Z,6.67
2019-05-26T06:12:28.117Z,6.60
2019-05-26T06:15:02.528Z,8.37
2019-05-26T06:17:31.111Z,8.30
2019-05-26T06:19:59.656Z,7.40
2019-05-26T06:22:28.252Z,8.10
2019-05-26T06:24:56.804Z,7.70
2019-05-26T06:27:25.367Z,6.60
2019-05-26T06:29:58.813Z,6.80
2019-05-26T06:32:24.788Z,6.70
2019-05-26T06:34:53.352Z,7.40
2019-05-26T06:37:22.021Z,7.20
2019-05-26T06:39:50.611Z,8.57
2019-05-26T06:42:19.182Z,9.53
2019-05-26T06:44:53.700Z,7.13
2019-05-26T06:47:17.957Z,7.30
2019-05-26T06:49:46.540Z,7.37
2019-05-26T06:52:15.104Z,7.33
2019-05-26T06:54:43.714Z,6.17
2019-05-26T06:57:12.266Z,5.97
2019-05-26T06:59:40.827Z,7.27
2019-05-26T07:02:09.420Z,6.90
2019-05-26T07:04:37.995Z,9.13
2019-05-26T07:07:06.587Z,7.63
2019-05-26T07:09:35.142Z,8.07
2019-05-26T07:12:03.869Z,7.03
2019-05-26T07:14:32.455Z,8.17
2019-05-26T07:17:01.018Z,6.43
2019-05-26T07:19:29.591Z,8.30
2019-05-26T07:21:59.065Z,7.40
2019-05-26T07:24:29.502Z,8.60
2019-05-26T07:26:57.929Z,11.00
2019-05-26T07:29:26.955Z,9.80
2019-05-26T07:31:55.590Z,6.87
2019-05-26T07:34:24.164Z,6.40
2019-05-26T07:36:52.840Z,6.30
2019-05-26T07:39:21.777Z,6.47
2019-05-26T07:42:08.242Z,6.60
2019-05-26T07:44:22.593Z,8.20
2019-05-26T07:46:51.155Z,7.37
2019-05-26T07:49:19.777Z,7.03
2019-05-26T07:51:48.322Z,6.90
2019-05-26T07:54:25.550Z,10.23
2019-05-26T07:56:47.157Z,10.33
2019-05-26T07:59:15.788Z,6.53
2019-05-26T08:01:44.407Z,7.23
2019-05-26T08:04:12.981Z,9.20
2019-05-26T08:06:41.545Z,10.60
2019-05-26T08:09:10.202Z,9.27
2019-05-26T08:11:38.990Z,8.57
2019-05-26T08:14:07.519Z,7.33
2019-05-26T08:16:36.116Z,7.23
2019-05-26T08:19:04.890Z,8.23
2019-05-26T08:21:33.485Z,7.97
2019-05-26T08:24:02.300Z,9.50
2019-05-26T08:26:31.019Z,6.30
2019-05-26T08:28:59.612Z,8.10
2019-05-26T08:31:28.252Z,8.27
2019-05-26T08:33:56.816Z,8.07
2019-05-26T08:36:25.481Z,6.13
2019-05-26T08:38:54.064Z,8.83
2019-05-26T08:41:22.638Z,8.50
2019-05-26T08:43:51.310Z,6.50
2019-05-26T08:46:20.200Z,7.87
2019-05-26T08:48:54.900Z,7.70
2019-05-26T08:51:23.609Z,7.43
2019-05-26T08:53:52.131Z,6.27
2019-05-26T08:56:20.830Z,5.20
2019-05-26T08:58:49.444Z,5.30
2019-05-26T09:01:18.074Z,4.90
2019-05-26T09:03:46.762Z,7.40
2019-05-26T09:06:15.316Z,6.47
2019-05-26T09:08:43.877Z,6.60
2019-05-26T09:11:12.473Z,6.00
2019-05-26T09:13:41.033Z,6.27
2019-05-26T09:16:09.607Z,6.90
2019-05-26T09:18:38.167Z,6.87
2019-05-26T09:21:06.739Z,6.83
2019-05-26T09:23:35.332Z,6.57
2019-05-26T09:26:03.966Z,7.70
2019-05-26T09:28:32.526Z,7.80
2019-05-26T09:31:01.187Z,6.90
2019-05-26T09:33:29.848Z,5.83
2019-05-26T09:35:58.602Z,5.00
2019-05-26T09:38:27.152Z,5.20
2019-05-26T09:40:55.714Z,4.60
2019-05-26T09:43:24.302Z,5.40
2019-05-26T09:45:52.931Z,4.43
2019-05-26T09:48:21.505Z,5.00
2019-05-26T09:50:50.108Z,4.63
2019-05-26T09:53:18.654Z,5.13
2019-05-26T09:55:47.238Z,4.37
2019-05-26T09:58:15.877Z,5.20
2019-05-26T10:00:44.427Z,5.20
2019-05-26T10:03:13.464Z,5.00
2019-05-26T10:05:42.897Z,5.17
2019-05-26T10:08:11.471Z,4.63
2019-05-26T10:10:40.067Z,4.53
2019-05-26T10:13:08.625Z,4.93
2019-05-26T10:15:37.400Z,4.50
2019-05-26T10:18:06.335Z,4.90
2019-05-26T10:20:34.867Z,4.57
2019-05-26T10:23:03.473Z,4.33
2019-05-26T10:25:32.094Z,4.80
2019-05-26T10:28:00.659Z,4.67
2019-05-26T10:30:29.277Z,4.10
2019-05-26T10:32:58.020Z,4.77
2019-05-26T10:35:26.614Z,4.87
2019-05-26T10:37:55.300Z,4.60
2019-05-26T10:40:24.003Z,4.60
2019-05-26T10:42:52.672Z,4.40
2019-05-26T10:45:21.488Z,4.70
2019-05-26T10:47:50.091Z,4.37
2019-05-26T10:50:20.172Z,4.10
2019-05-26T10:52:50.740Z,3.83
2019-05-26T10:55:19.183Z,4.13
2019-05-26T10:57:47.737Z,3.80
2019-05-26T11:00:16.629Z,3.03
2019-05-26T11:02:45.326Z,3.33
2019-05-26T11:05:14.278Z,4.20
2019-05-26T11:07:42.842Z,4.77
2019-05-26T11:10:11.618Z,4.37
2019-05-26T11:12:40.250Z,4.83
2019-05-26T11:15:09.547Z,4.57
2019-05-26T11:17:38.204Z,4.13
2019-05-26T11:20:10.507Z,3.73
2019-05-26T11:22:39.069Z,3.93
2019-05-26T11:25:08.248Z,4.10
2019-05-26T11:27:36.906Z,3.23
2019-05-26T11:30:13.158Z,4.00
2019-05-26T11:32:41.750Z,3.53
2019-05-26T11:35:10.635Z,3.60
2019-05-26T11:37:39.231Z,3.47
2019-05-26T11:40:08.231Z,3.97
2019-05-26T11:42:36.959Z,3.40
2019-05-26T11:45:08.795Z,4.70
2019-05-26T11:47:37.435Z,4.13
2019-05-26T11:50:10.279Z,4.30
2019-05-26T11:52:38.897Z,3.83
2019-05-26T11:55:08.348Z,3.60
2019-05-26T11:57:37.595Z,3.37
2019-05-26T12:00:08.436Z,3.90
2019-05-26T12:02:37.553Z,3.60
2019-05-26T12:05:09.814Z,3.20
2019-05-26T12:07:38.514Z,3.90
2019-05-26T12:10:08.173Z,4.03
2019-05-26T12:12:36.874Z,4.00
2019-05-26T12:15:09.657Z,3.87
2019-05-26T12:17:38.367Z,3.60
2019-05-26T12:20:08.692Z,4.20
2019-05-26T12:22:37.343Z,3.93
2019-05-26T12:25:09.285Z,3.70
2019-05-26T12:27:37.907Z,4.10
2019-05-26T12:30:08.161Z,3.40
2019-05-26T12:32:36.729Z,4.63
2019-05-26T12:35:10.089Z,3.50
2019-05-26T12:37:38.666Z,3.70
2019-05-26T12:40:09.172Z,3.70
2019-05-26T12:42:37.897Z,4.03
2019-05-26T12:45:08.584Z,3.13
2019-05-26T12:47:37.229Z,3.40
2019-05-26T12:50:07.809Z,3.17
2019-05-26T12:52:36.369Z,3.20
2019-05-26T12:55:09.031Z,3.00
2019-05-26T12:57:36.891Z,2.90
2019-05-26T13:00:10.052Z,2.93
2019-05-26T13:02:38.747Z,3.00
2019-05-26T13:05:08.740Z,3.10
2019-05-26T13:07:37.959Z,3.53
2019-05-26T13:10:10.038Z,3.37
2019-05-26T13:12:39.377Z,3.40
2019-05-26T13:15:10.363Z,3.10
2019-05-26T13:17:39.199Z,3.07
2019-05-26T13:20:09.381Z,3.20
2019-05-26T13:22:38.517Z,2.97
2019-05-26T13:25:09.639Z,3.77
2019-05-26T13:27:38.328Z,3.50
2019-05-26T13:30:21.556Z,3.17
2019-05-26T13:32:50.618Z,3.20
2019-05-26T13:35:20.537Z,3.00
2019-05-26T13:37:49.162Z,2.80
2019-05-26T13:40:18.191Z,2.83
2019-05-26T13:42:46.831Z,2.97
2019-05-26T13:45:22.559Z,3.13
2019-05-26T13:47:46.350Z,2.80
2019-05-26T13:50:16.839Z,2.70
2019-05-26T13:52:46.274Z,2.50
2019-05-26T13:55:15.192Z,2.67
2019-05-26T13:57:43.757Z,2.97
2019-05-26T14:00:16.654Z,2.90
2019-05-26T14:02:45.319Z,2.80
2019-05-26T14:05:14.224Z,2.23
2019-05-26T14:07:42.795Z,2.70
2019-05-26T14:10:11.946Z,2.50
2019-05-26T14:12:40.574Z,2.37
2019-05-26T14:15:09.887Z,2.30
2019-05-26T14:17:39.219Z,2.83
2019-05-26T14:20:09.133Z,2.50
2019-05-26T14:22:37.669Z,2.60
2019-05-26T14:25:07.611Z,2.40
2019-05-26T14:27:36.247Z,2.33
2019-05-26T14:30:08.739Z,2.37
2019-05-26T14:32:37.393Z,2.30
2019-05-26T14:35:06.875Z,2.10
2019-05-26T14:37:35.433Z,2.37
2019-05-26T14:40:08.774Z,2.07
2019-05-26T14:42:37.410Z,2.00
2019-05-26T14:45:09.731Z,2.30
2019-05-26T14:47:40.401Z,2.27
2019-05-26T14:50:09.722Z,1.80
2019-05-26T14:52:38.556Z,2.03
2019-05-26T14:55:07.686Z,1.83
2019-05-26T14:57:36.428Z,1.70
2019-05-26T15:00:12.125Z,1.80
2019-05-26T15:02:40.885Z,2.00
2019-05-26T15:05:10.260Z,2.03
2019-05-26T15:07:38.941Z,2.00
2019-05-26T15:10:08.596Z,2.07
2019-05-26T15:12:37.242Z,1.90
2019-05-26T15:15:07.221Z,2.20
2019-05-26T15:17:35.996Z,1.80
2019-05-26T15:20:07.462Z,2.37
2019-05-26T15:22:36.826Z,1.70
2019-05-26T15:25:08.375Z,1.70
2019-05-26T15:27:37.116Z,2.20
2019-05-26T15:30:08.264Z,2.37
2019-05-26T15:32:36.886Z,1.90
2019-05-26T15:35:06.680Z,1.90
2019-05-26T15:37:35.416Z,2.03
2019-05-26T15:40:05.995Z,2.03
2019-05-26T15:42:34.962Z,1.80
2019-05-26T15:45:04.409Z,2.10
2019-05-26T15:47:33.332Z,2.10
2019-05-26T15:50:01.923Z,2.20
2019-05-26T15:52:30.514Z,2.00
2019-05-26T15:54:59.076Z,2.30
2019-05-26T15:57:27.667Z,2.30
2019-05-26T15:59:56.236Z,2.20
2019-05-26T16:02:24.812Z,2.20
2019-05-26T16:04:53.402Z,2.30
2019-05-26T16:07:21.950Z,2.60
2019-05-26T16:09:50.821Z,2.80
2019-05-26T16:12:19.457Z,2.73
2019-05-26T16:14:48.007Z,2.50
2019-05-26T16:17:16.607Z,2.63
2019-05-26T16:19:45.154Z,2.23
2019-05-26T16:22:13.773Z,2.43
2019-05-26T16:24:42.331Z,2.40
2019-05-26T16:27:19.112Z,2.40
2019-05-26T16:29:41.142Z,2.27
2019-05-26T16:32:09.799Z,2.70
2019-05-26T16:34:38.403Z,2.30
2019-05-26T16:37:06.976Z,2.47
2019-05-26T16:39:37.206Z,2.03
2019-05-26T16:42:06.365Z,2.17
2019-05-26T16:44:34.923Z,2.00
2019-05-26T16:47:04.435Z,2.10
2019-05-26T16:49:33.015Z,1.90
2019-05-26T16:52:01.578Z,2.30
2019-05-26T16:54:30.175Z,2.10
2019-05-26T16:56:58.915Z,2.23
2019-05-26T16:59:27.526Z,2.17
2019-05-26T17:01:56.136Z,1.97
2019-05-26T17:04:24.776Z,2.00
2019-05-26T17:06:53.352Z,2.20
2019-05-26T17:09:24.749Z,2.10
2019-05-26T17:11:53.372Z,2.47
2019-05-26T17:14:22.019Z,2.40
2019-05-26T17:16:50.680Z,2.10
2019-05-26T17:19:19.927Z,2.40
2019-05-26T17:21:48.549Z,2.20
2019-05-26T17:24:17.137Z,2.43
2019-05-26T17:26:45.736Z,2.23
2019-05-26T17:29:14.465Z,2.50
2019-05-26T17:31:43.092Z,2.37
2019-05-26T17:34:12.150Z,2.50
2019-05-26T17:36:41.390Z,2.33
2019-05-26T17:39:10.114Z,2.50
2019-05-26T17:41:38.691Z,2.50
2019-05-26T17:44:07.418Z,2.00
2019-05-26T17:46:36.383Z,2.27
2019-05-26T17:49:05.640Z,2.40
2019-05-26T17:51:34.927Z,2.70
2019-05-26T17:54:03.956Z,2.20
2019-05-26T17:56:32.606Z,2.27
2019-05-26T17:59:01.161Z,2.13
2019-05-26T18:01:29.760Z,2.00
2019-05-26T18:03:59.107Z,2.40
2019-05-26T18:06:28.543Z,2.00
2019-05-26T18:08:57.311Z,2.60
2019-05-26T18:11:26.371Z,2.17
2019-05-26T18:13:54.944Z,2.23
2019-05-26T18:16:23.591Z,2.20
2019-05-26T18:18:52.235Z,2.30
2019-05-26T18:21:20.852Z,2.20
2019-05-26T18:23:49.702Z,2.13
2019-05-26T18:26:18.332Z,2.70
2019-05-26T18:28:46.900Z,2.40
2019-05-26T18:31:15.542Z,2.40
2019-05-26T18:33:44.421Z,2.83
2019-05-26T18:36:12.979Z,2.50
2019-05-26T18:38:41.631Z,2.30
2019-05-26T18:41:10.997Z,2.50
2019-05-26T18:43:39.841Z,2.30
2019-05-26T18:46:08.773Z,2.43
2019-05-26T18:48:37.504Z,2.17
2019-05-26T18:51:06.563Z,2.30
2019-05-26T18:53:35.174Z,2.43
2019-05-26T18:56:03.798Z,2.50
2019-05-26T18:58:32.419Z,2.57
2019-05-26T19:01:01.690Z,2.40
2019-05-26T19:03:30.457Z,2.77
2019-05-26T19:05:59.058Z,2.13
2019-05-26T19:08:27.638Z,2.20
2019-05-26T19:10:56.555Z,2.40
2019-05-26T19:13:25.619Z,2.50
2019-05-26T19:15:54.514Z,2.50
2019-05-26T19:18:23.372Z,2.20
2019-05-26T19:20:52.192Z,2.10
2019-05-26T19:23:20.911Z,2.37
2019-05-26T19:25:49.708Z,2.30
2019-05-26T19:28:18.704Z,2.50
2019-05-26T19:30:50.235Z,2.33
2019-05-26T19:33:19.385Z,2.43
2019-05-26T19:35:48.061Z,2.43
2019-05-26T19:38:16.642Z,2.53
2019-05-26T19:40:45.212Z,2.50
2019-05-26T19:43:14.087Z,2.50
2019-05-26T19:45:42.927Z,2.50
2019-05-26T19:48:11.668Z,2.30
2019-05-26T19:50:40.270Z,2.40
2019-05-26T19:53:09.353Z,2.67
2019-05-26T19:55:39.194Z,2.93
2019-05-26T19:58:07.808Z,2.60
2019-05-26T20:00:36.463Z,2.57
2019-05-26T20:03:05.119Z,2.73
2019-05-26T20:05:33.808Z,2.70
2019-05-26T20:08:02.466Z,2.37
2019-05-26T20:10:31.098Z,2.63
2019-05-26T20:12:59.749Z,2.40
2019-05-26T20:15:28.367Z,2.63
2019-05-26T20:17:57.061Z,2.10
2019-05-26T20:20:25.600Z,2.20
2019-05-26T20:22:54.281Z,2.13
2019-05-26T20:25:26.334Z,2.50
2019-05-26T20:27:54.901Z,2.20
2019-05-26T20:30:23.715Z,2.27
2019-05-26T20:32:52.311Z,2.43
2019-05-26T20:35:21.020Z,2.60
2019-05-26T20:37:49.613Z,2.57
2019-05-26T20:40:18.914Z,2.53
2019-05-26T20:42:59.281Z,2.33
2019-05-26T20:45:27.856Z,2.60
2019-05-26T20:47:56.574Z,2.50
2019-05-26T20:50:29.681Z,2.50
2019-05-26T20:52:55.460Z,2.47
2019-05-26T20:55:24.285Z,2.73
2019-05-26T20:57:52.873Z,2.97
2019-05-26T21:00:21.782Z,2.80
2019-05-26T21:02:50.470Z,2.90
2019-05-26T21:05:19.183Z,3.63
2019-05-26T21:07:47.737Z,3.27
2019-05-26T21:10:16.604Z,3.10
2019-05-26T21:12:45.289Z,2.67
2019-05-26T21:15:14.067Z,2.50
2019-05-26T21:17:42.674Z,2.90
2019-05-26T21:20:12.072Z,2.90
2019-05-26T21:22:40.631Z,3.03
2019-05-26T21:25:09.582Z,3.00
2019-05-26T21:27:38.127Z,3.30
2019-05-26T21:30:08.443Z,2.97
2019-05-26T21:32:37.083Z,3.30
2019-05-26T21:35:07.202Z,3.10
2019-05-26T21:37:35.797Z,3.27
2019-05-26T21:40:07.136Z,3.23
2019-05-26T21:42:35.833Z,3.30
2019-05-26T21:45:08.601Z,3.40
2019-05-26T21:47:37.207Z,3.10
2019-05-26T21:50:07.911Z,3.30
2019-05-26T21:52:36.583Z,3.00
2019-05-26T21:55:06.684Z,3.17
2019-05-26T21:57:35.437Z,2.70
2019-05-26T22:00:10.976Z,2.97
2019-05-26T22:02:39.743Z,3.20
2019-05-26T22:05:08.865Z,3.20
2019-05-26T22:07:37.450Z,3.43
2019-05-26T22:10:08.817Z,3.50
2019-05-26T22:12:37.380Z,3.67
2019-05-26T22:15:09.368Z,3.60
2019-05-26T22:17:37.993Z,3.50
2019-05-26T22:20:07.426Z,3.50
2019-05-26T22:22:36.092Z,3.40
2019-05-26T22:25:06.536Z,3.27
2019-05-26T22:27:35.401Z,3.10
2019-05-26T22:30:05.158Z,3.13
2019-05-26T22:32:33.804Z,3.00
2019-05-26T22:35:02.427Z,3.57
2019-05-26T22:37:31.039Z,3.27
2019-05-26T22:39:59.620Z,3.50
2019-05-26T22:42:28.200Z,3.90
2019-05-26T22:44:56.800Z,3.03
2019-05-26T22:47:25.371Z,3.20
2019-05-26T22:49:55.574Z,3.60
2019-05-26T22:52:24.256Z,3.00
2019-05-26T22:54:52.920Z,3.57
2019-05-26T22:57:21.578Z,3.27
2019-05-26T22:59:50.169Z,3.63
2019-05-26T23:02:18.814Z,3.30
2019-05-26T23:04:47.469Z,3.50
2019-05-26T23:07:16.036Z,3.27
2019-05-26T23:09:44.595Z,3.57
2019-05-26T23:12:13.261Z,3.80
2019-05-26T23:14:41.820Z,3.47
2019-05-26T23:17:10.410Z,3.47
2019-05-26T23:19:38.968Z,3.37
2019-05-26T23:22:07.596Z,3.60
2019-05-26T23:24:36.237Z,3.10
2019-05-26T23:27:04.785Z,3.47
2019-05-26T23:29:33.364Z,3.47
2019-05-26T23:32:04.923Z,3.37
2019-05-26T23:34:33.489Z,3.70
2019-05-26T23:37:02.108Z,3.50
2019-05-26T23:39:31.007Z,3.73
2019-05-26T23:41:59.656Z,2.90
2019-05-26T23:44:28.267Z,3.60
2019-05-26T23:46:56.825Z,3.40
2019-05-26T23:49:25.391Z,3.33
2019-05-26T23:51:53.995Z,3.07
2019-05-26T23:54:22.555Z,3.50
2019-05-26T23:56:51.147Z,3.20
2019-05-26T23:59:19.791Z,3.40
